x

Tanner Bank - 121nm West Of San Diego, Ca (46047) Wave Buoy

12:50 - Fri 3rd Jul 2015 All times are PDT. -7 hours from GMT.

  • Sig Wave height 3.9ft
  • Swell Direction
  • Peak Period 9s
  • Average Period 6s
  • Wind
    11mph, 13mph gusts
  • Sea Temp 62°f
  • Ar Temp 62°f
  • Sea Pressure 1015mb
  • Tanner Bank - 121nm West Of San Diego, Ca
  • Tanner Bank - 121nm West Of San Diego, Ca

More Historic Weather Station data

Upgrade to MSW Pro to gain access to the past 30 days of data for over 8000 Wavebouys and Weather Stations around the globe.

Join Pro

Comparision Forecast

View Surf forecast
   
Sex 07/03 12:50 4ft 9s 6s 11 13 mph 1015mb 62f 62f
11:50 3.5ft 10s 6s 9 11 mph 1015.7mb 62f 62f
10:50 3.5ft 10s 6s 11
mph
1015.7mb 62f 62f
9:50 3.5ft 14s 6s 9 11 mph 1015.9mb 62f 62f
8:50 3.5ft 9s 6s 13 16 mph 1016mb 62f 62f
7:50 4ft 14s 6s 13 18 mph 1015.2mb 62f 62f
6:50 4ft 14s 6s 13 16 mph 1015.1mb 62f 62f
5:50 3.5ft 14s 6s 16 18 mph 1014.8mb 62f 62f
4:50 3.5ft 10s 6s 11 13 mph 1014.8mb 62f 62f
3:50 4.5ft 14s 7s 11 13 mph 1014.9mb 62f 62f
2:50 4.5ft 9s 7s 11 16 mph 1014.7mb 62f 62f
1:50 4ft 10s 6s 13 16 mph 1014.8mb 62f 62f
12:50 4ft 15s 6s 13 16 mph 1015mb 62f 62f
Qui 07/02 11:50 4.5ft 14s 7s 11 16 mph 1015.2mb 62f 62f
10:50 4ft 14s 6s 13 18 mph 1015.1mb 62f 62f
9:50 4ft 15s 7s 16 18 mph 1014.7mb 62f 62f
8:50 3.5ft 15s 6s 13 16 mph 1014.2mb 62f 62f
7:50 3.5ft 14s 6s 16 18 mph 1014.2mb 62f 63f
6:50 4ft 15s 7s 13 16 mph 1014.2mb 62f 63f
5:50 4ft 15s 7s 11 13 mph 1014.5mb 63f 63f
4:50 4.5ft 9s 8s 11 16 mph 1014.8mb 63f 63f
3:50 3.5ft 11s 8s 11 13 mph 1015.1mb 63f 63f
2:50 4ft 15s 8s 11 13 mph 1015.7mb 63f 63f
1:50 3.5ft 8s 7s 9 11 mph 1016.1mb 63f 63f
12:50 4ft 8s 8s 11 13 mph 1016.4mb 62f 62f
11:50 3.5ft 15s 8s 9 11 mph 1016.6mb 62f 62f
10:50 3.5ft 8s 7s 4 7 mph 1016.8mb 62f 62f
9:50 3.5ft 8s 7s 7
mph
1016.7mb 62f 62f
8:50 4ft 15s 8s 9 11 mph 1016.5mb 62f 62f
7:50 3.5ft 8s 7s 9 11 mph 1016.1mb 62f 62f
6:50 3.5ft 9s 7s 11 16 mph 1015.8mb 62f 62f
5:50 3.5ft 15s 8s 11 16 mph 1015.2mb 62f 61f
4:50 4ft 14s 8s 9 11 mph 1014.9mb 62f 61f
3:50 3.5ft 15s 7s 9 11 mph 1014.9mb 62f 61f
2:50 3.5ft 15s 7s 9 11 mph 1014.8mb 62f 61f
1:50 4ft 8s 7s 11 13 mph 1014.4mb 62f 61f
12:50 4ft 16s 7s 9 11 mph 1014.6mb 62f 61f
Qua 07/01 11:50 4ft 8s 7s 7 9 mph 1014.8mb 62f 61f
10:50 4ft 8s 7s 9
mph
1014.6mb 62f 61f
9:50 3.5ft 8s 7s 11 13 mph 1014.5mb 62f 61f
8:50 4ft 13s 7s 11 16 mph 1013.8mb 62f 62f
7:50 4ft 8s 7s 11 13 mph 1013.3mb 62f 62f
6:50 4ft 8s 7s 9 11 mph 1012.8mb 62f 62f
5:50 3.5ft 8s 7s 9 11 mph 1012.9mb 62f 62f
4:50 4ft 16s 7s 9 11 mph 1013mb 62f 62f
3:50 4ft 8s 6s 11 13 mph 1013.2mb 62f 62f
2:50 4ft 8s 6s 11 13 mph 1013.7mb 62f 62f
1:50 4ft 8s 7s 11 13 mph 1013.9mb 62f 62f
12:50 4ft 8s 7s 9 11 mph 1014.2mb 62f 61f
11:50 4ft 9s 7s 9 11 mph 1014.2mb 62f 61f
10:50 4ft 8s 7s 7 9 mph 1013.7mb 62f 60f
9:50 4.5ft 8s 7s 9 11 mph 1013.4mb 62f 60f
8:50 4ft 8s 7s 9 13 mph 1013.8mb 62f 60f
7:50 4ft 8s 7s 9 11 mph 1013.3mb 62f 60f
6:50 4.5ft 8s 7s 9 11 mph 1013.1mb 62f 60f
5:50 4.5ft 8s 7s 11 13 mph 1012.7mb 61f 60f
4:50 4.5ft 7s 7s 7 9 mph 1012.9mb 61f 60f
3:50 4.5ft 8s 6s 11 13 mph 1012.1mb 61f 59f
2:50 4.5ft 8s 7s 11 13 mph 1011.2mb 61f 59f
1:50 4.5ft 8s 6s 9 11 mph 1011.5mb 61f 59f
12:50 4.5ft 8s 6s 11 13 mph 1011.6mb 61f 59f
Ter 06/30 11:50 5ft 7s 6s 9 11 mph 1011.7mb 61f 59f
10:50 4.5ft 8s 6s 11 13 mph 1011.5mb 61f 60f
9:50 5ft 8s 6s 11 16 mph 1012.1mb 61f 60f
8:50 4.5ft 8s 6s 11 16 mph 1011.4mb 61f 60f
7:50 4.5ft 8s 6s 13 16 mph 1010.9mb 61f 60f
6:50 5ft 8s 6s 13 16 mph 1010.8mb 61f 60f
5:50 4.5ft 8s 6s 16 20 mph 1010.9mb 61f 60f
4:50 4.5ft 7s 6s 11 13 mph 1012.1mb 61f 60f
3:50 4.5ft 7s 6s 11 13 mph 1012.4mb 61f 60f
2:50 4.5ft 7s 6s 7 9 mph 1013.5mb 61f 60f
1:50 5ft 7s 6s 7 9 mph 1013.5mb 61f 60f
12:50 5ft 8s 6s 11 13 mph 1013.7mb 61f 60f
11:50 5ft 7s 6s 11 13 mph 1013.3mb 61f 60f
10:50 5ft 7s 6s 11 16 mph 1013.1mb 61f 60f
9:50 5ft 7s 6s 11 13 mph 1013.7mb 61f 59f
8:50 5ft 7s 6s 13 16 mph 1013mb 61f 59f
7:50 5ft 7s 6s 13 18 mph 1012.6mb 61f 59f
6:50 5ft 15s 6s 16 18 mph 1012.2mb 61f 59f
5:50 5ft 7s 6s 13 18 mph 1012.3mb 61f 59f
4:50 5ft 7s 6s 16 18 mph 1012.1mb 61f 59f
3:50 5.5ft 7s 6s 16 20 mph 1012.2mb 61f 59f
2:50 5ft 7s 6s 16 20 mph 1012.6mb 61f 60f
1:50 5ft 7s 5s 16 20 mph 1012.7mb 61f 60f
12:50 5ft 7s 5s 16 18 mph 1013mb 62f 60f
Seg 06/29 11:50 5.5ft 7s 5s 13 18 mph 1013.4mb 62f 60f
10:50 6ft 7s 5s 16 18 mph 1013.8mb 62f 60f
9:50 6ft 7s 5s 16 18 mph 1014mb 62f 60f
8:50 5.5ft 7s 5s 18 22 mph 1012.5mb 62f 60f